sensor_id;sensor_type;location;lat;lon;timestamp;pressure;altitude;pressure_sealevel;temperature;humidity
76378;BME280;65200;49.500;8.654;2024-01-30T00:01:08;101841.63;;;8.04;61.09
76378;BME280;65200;49.500;8.654;2024-01-30T00:03:36;101841.16;;;7.89;63.13
76378;BME280;65200;49.500;8.654;2024-01-30T00:06:04;101844.97;;;7.96;63.73
76378;BME280;65200;49.500;8.654;2024-01-30T00:08:32;101838.34;;;7.81;63.55
76378;BME280;65200;49.500;8.654;2024-01-30T00:10:59;101842.09;;;7.69;63.92
76378;BME280;65200;49.500;8.654;2024-01-30T00:13:27;101837.28;;;8.12;64.11
76378;BME280;65200;49.500;8.654;2024-01-30T00:15:56;101836.56;;;8.20;63.07
76378;BME280;65200;49.500;8.654;2024-01-30T00:18:24;101841.63;;;8.13;63.22
76378;BME280;65200;49.500;8.654;2024-01-30T00:20:52;101841.06;;;8.10;63.27
76378;BME280;65200;49.500;8.654;2024-01-30T00:23:20;101840.94;;;8.11;62.79
76378;BME280;65200;49.500;8.654;2024-01-30T00:25:47;101837.69;;;8.08;62.54
76378;BME280;65200;49.500;8.654;2024-01-30T00:28:15;101843.56;;;7.92;63.02
76378;BME280;65200;49.500;8.654;2024-01-30T00:30:43;101836.69;;;7.99;63.07
76378;BME280;65200;49.500;8.654;2024-01-30T00:33:12;101837.97;;;8.05;63.04
76378;BME280;65200;49.500;8.654;2024-01-30T00:35:39;101844.28;;;7.94;62.06
76378;BME280;65200;49.500;8.654;2024-01-30T00:38:07;101843.06;;;7.68;63.83
76378;BME280;65200;49.500;8.654;2024-01-30T00:40:34;101844.81;;;7.79;63.22
76378;BME280;65200;49.500;8.654;2024-01-30T00:43:02;101839.72;;;7.36;63.99
76378;BME280;65200;49.500;8.654;2024-01-30T00:45:30;101844.66;;;7.41;64.38
76378;BME280;65200;49.500;8.654;2024-01-30T00:47:57;101846.47;;;7.80;62.85
76378;BME280;65200;49.500;8.654;2024-01-30T00:50:26;101838.94;;;7.94;61.44
76378;BME280;65200;49.500;8.654;2024-01-30T00:52:54;101846.03;;;7.75;62.45
76378;BME280;65200;49.500;8.654;2024-01-30T00:55:22;101846.47;;;7.70;62.49
76378;BME280;65200;49.500;8.654;2024-01-30T00:57:49;101838.19;;;7.73;63.88
76378;BME280;65200;49.500;8.654;2024-01-30T01:00:17;101839.59;;;7.38;64.29
76378;BME280;65200;49.500;8.654;2024-01-30T01:02:45;101839.34;;;7.50;64.05
76378;BME280;65200;49.500;8.654;2024-01-30T01:05:12;101842.91;;;7.60;63.79
76378;BME280;65200;49.500;8.654;2024-01-30T01:07:41;101838.69;;;7.28;64.58
76378;BME280;65200;49.500;8.654;2024-01-30T01:10:10;101842.66;;;7.33;65.23
76378;BME280;65200;49.500;8.654;2024-01-30T01:12:38;101844.84;;;7.58;64.45
76378;BME280;65200;49.500;8.654;2024-01-30T01:15:07;101833.00;;;7.42;63.92
76378;BME280;65200;49.500;8.654;2024-01-30T01:17:36;101837.28;;;7.63;63.02
76378;BME280;65200;49.500;8.654;2024-01-30T01:20:05;101844.16;;;7.56;62.56
76378;BME280;65200;49.500;8.654;2024-01-30T01:22:34;101837.38;;;7.43;63.65
76378;BME280;65200;49.500;8.654;2024-01-30T01:25:03;101843.00;;;7.49;63.96
76378;BME280;65200;49.500;8.654;2024-01-30T01:27:33;101840.50;;;7.27;62.95
76378;BME280;65200;49.500;8.654;2024-01-30T01:30:08;101833.91;;;7.01;65.19
76378;BME280;65200;49.500;8.654;2024-01-30T01:32:36;101840.69;;;7.05;67.13
76378;BME280;65200;49.500;8.654;2024-01-30T01:35:05;101836.03;;;7.58;65.63
76378;BME280;65200;49.500;8.654;2024-01-30T01:37:33;101839.84;;;7.74;64.04
76378;BME280;65200;49.500;8.654;2024-01-30T01:40:00;101830.50;;;7.50;63.68
76378;BME280;65200;49.500;8.654;2024-01-30T01:42:29;101832.34;;;7.49;63.80
76378;BME280;65200;49.500;8.654;2024-01-30T01:44:57;101834.56;;;7.44;64.45
76378;BME280;65200;49.500;8.654;2024-01-30T01:47:25;101822.91;;;7.45;64.83
76378;BME280;65200;49.500;8.654;2024-01-30T01:49:52;101827.63;;;7.32;64.65
76378;BME280;65200;49.500;8.654;2024-01-30T01:52:20;101824.78;;;7.24;64.28
76378;BME280;65200;49.500;8.654;2024-01-30T01:54:48;101828.84;;;7.19;65.17
76378;BME280;65200;49.500;8.654;2024-01-30T01:57:15;101822.28;;;7.32;64.22
76378;BME280;65200;49.500;8.654;2024-01-30T01:59:44;101825.16;;;7.10;64.23
76378;BME280;65200;49.500;8.654;2024-01-30T02:02:12;101820.59;;;7.01;64.38
76378;BME280;65200;49.500;8.654;2024-01-30T02:04:42;101819.28;;;7.16;63.65
76378;BME280;65200;49.500;8.654;2024-01-30T02:07:10;101812.25;;;7.15;63.72
76378;BME280;65200;49.500;8.654;2024-01-30T02:09:38;101814.63;;;6.88;66.81
76378;BME280;65200;49.500;8.654;2024-01-30T02:12:06;101803.28;;;7.16;65.03
76378;BME280;65200;49.500;8.654;2024-01-30T02:14:45;101818.81;;;7.11;63.71
76378;BME280;65200;49.500;8.654;2024-01-30T02:17:13;101823.69;;;7.06;62.51
76378;BME280;65200;49.500;8.654;2024-01-30T02:19:41;101820.81;;;6.68;63.79
76378;BME280;65200;49.500;8.654;2024-01-30T02:22:10;101825.03;;;6.91;63.63
76378;BME280;65200;49.500;8.654;2024-01-30T02:24:38;101817.63;;;6.74;64.43
76378;BME280;65200;49.500;8.654;2024-01-30T02:27:05;101813.13;;;6.54;63.26
76378;BME280;65200;49.500;8.654;2024-01-30T02:29:33;101819.84;;;6.48;62.78
76378;BME280;65200;49.500;8.654;2024-01-30T02:32:00;101820.88;;;6.57;62.56
76378;BME280;65200;49.500;8.654;2024-01-30T02:34:29;101824.19;;;6.49;63.65
76378;BME280;65200;49.500;8.654;2024-01-30T02:36:57;101820.44;;;6.52;63.84
76378;BME280;65200;49.500;8.654;2024-01-30T02:39:26;101817.38;;;6.56;64.44
76378;BME280;65200;49.500;8.654;2024-01-30T02:41:53;101814.31;;;6.61;64.65
76378;BME280;65200;49.500;8.654;2024-01-30T02:44:21;101820.94;;;6.66;63.87
76378;BME280;65200;49.500;8.654;2024-01-30T02:46:48;101820.81;;;6.68;63.54
76378;BME280;65200;49.500;8.654;2024-01-30T02:49:16;101818.16;;;6.68;64.01
76378;BME280;65200;49.500;8.654;2024-01-30T02:51:44;101828.66;;;6.49;63.39
76378;BME280;65200;49.500;8.654;2024-01-30T02:54:12;101826.97;;;6.48;63.24
76378;BME280;65200;49.500;8.654;2024-01-30T02:56:41;101823.59;;;6.14;65.54
76378;BME280;65200;49.500;8.654;2024-01-30T02:59:08;101829.19;;;6.11;64.92
76378;BME280;65200;49.500;8.654;2024-01-30T03:01:42;101825.91;;;6.39;63.80
76378;BME280;65200;49.500;8.654;2024-01-30T03:04:10;101825.75;;;6.20;65.15
76378;BME280;65200;49.500;8.654;2024-01-30T03:06:38;101825.09;;;6.39;64.98
76378;BME280;65200;49.500;8.654;2024-01-30T03:09:06;101827.75;;;6.39;64.70
76378;BME280;65200;49.500;8.654;2024-01-30T03:11:35;101830.41;;;6.39;65.16
76378;BME280;65200;49.500;8.654;2024-01-30T03:14:04;101820.50;;;6.30;65.42
76378;BME280;65200;49.500;8.654;2024-01-30T03:16:32;101826.03;;;6.38;64.50
76378;BME280;65200;49.500;8.654;2024-01-30T03:18:59;101820.84;;;6.36;64.71
76378;BME280;65200;49.500;8.654;2024-01-30T03:21:28;101828.09;;;6.34;66.08
76378;BME280;65200;49.500;8.654;2024-01-30T03:23:56;101823.50;;;6.36;65.81
76378;BME280;65200;49.500;8.654;2024-01-30T03:26:23;101820.97;;;6.35;66.19
76378;BME280;65200;49.500;8.654;2024-01-30T03:28:51;101813.38;;;6.51;65.98
76378;BME280;65200;49.500;8.654;2024-01-30T03:31:19;101823.84;;;6.43;65.81
76378;BME280;65200;49.500;8.654;2024-01-30T03:33:47;101820.03;;;6.56;65.79
76378;BME280;65200;49.500;8.654;2024-01-30T03:36:15;101815.47;;;6.47;65.72
76378;BME280;65200;49.500;8.654;2024-01-30T03:38:43;101818.59;;;6.52;65.58
76378;BME280;65200;49.500;8.654;2024-01-30T03:41:11;101825.22;;;6.37;66.25
76378;BME280;65200;49.500;8.654;2024-01-30T03:43:38;101813.63;;;6.27;66.92
76378;BME280;65200;49.500;8.654;2024-01-30T03:46:06;101813.44;;;6.40;66.97
76378;BME280;65200;49.500;8.654;2024-01-30T03:48:35;101819.91;;;6.37;66.77
76378;BME280;65200;49.500;8.654;2024-01-30T03:51:03;101822.56;;;6.37;67.29
76378;BME280;65200;49.500;8.654;2024-01-30T03:53:31;101825.56;;;6.33;66.18
76378;BME280;65200;49.500;8.654;2024-01-30T03:55:59;101822.91;;;6.33;65.09
76378;BME280;65200;49.500;8.654;2024-01-30T03:58:26;101822.44;;;6.39;64.33
76378;BME280;65200;49.500;8.654;2024-01-30T04:00:54;101825.44;;;6.34;64.03
76378;BME280;65200;49.500;8.654;2024-01-30T04:03:21;101821.06;;;6.13;65.79
76378;BME280;65200;49.500;8.654;2024-01-30T04:05:51;101816.75;;;6.01;65.07
76378;BME280;65200;49.500;8.654;2024-01-30T04:08:19;101815.56;;;6.25;65.11
76378;BME280;65200;49.500;8.654;2024-01-30T04:10:47;101814.03;;;6.12;64.83
76378;BME280;65200;49.500;8.654;2024-01-30T04:13:14;101806.34;;;5.98;65.45
76378;BME280;65200;49.500;8.654;2024-01-30T04:15:42;101811.47;;;5.79;65.59
76378;BME280;65200;49.500;8.654;2024-01-30T04:18:10;101810.00;;;5.97;65.28
76378;BME280;65200;49.500;8.654;2024-01-30T04:20:37;101810.00;;;5.97;65.19
76378;BME280;65200;49.500;8.654;2024-01-30T04:23:06;101812.41;;;5.78;66.41
76378;BME280;65200;49.500;8.654;2024-01-30T04:25:34;101809.16;;;5.74;66.08
76378;BME280;65200;49.500;8.654;2024-01-30T04:28:01;101814.81;;;5.81;65.51
76378;BME280;65200;49.500;8.654;2024-01-30T04:30:29;101816.56;;;5.48;65.69
76378;BME280;65200;49.500;8.654;2024-01-30T04:32:56;101809.09;;;5.42;65.32
76378;BME280;65200;49.500;8.654;2024-01-30T04:35:24;101810.28;;;5.60;65.69
76378;BME280;65200;49.500;8.654;2024-01-30T04:37:52;101809.31;;;5.50;67.81
76378;BME280;65200;49.500;8.654;2024-01-30T04:40:21;101818.88;;;5.42;66.64
76378;BME280;65200;49.500;8.654;2024-01-30T04:42:49;101811.25;;;5.71;66.63
76378;BME280;65200;49.500;8.654;2024-01-30T04:45:16;101814.91;;;5.36;66.89
76378;BME280;65200;49.500;8.654;2024-01-30T04:47:44;101823.34;;;5.52;66.36
76378;BME280;65200;49.500;8.654;2024-01-30T04:50:13;101813.44;;;5.32;66.61
76378;BME280;65200;49.500;8.654;2024-01-30T04:52:40;101814.88;;;5.47;66.41
76378;BME280;65200;49.500;8.654;2024-01-30T04:55:08;101816.94;;;5.33;67.80
76378;BME280;65200;49.500;8.654;2024-01-30T04:57:37;101822.25;;;5.55;68.37
76378;BME280;65200;49.500;8.654;2024-01-30T05:00:06;101812.66;;;5.86;66.60
76378;BME280;65200;49.500;8.654;2024-01-30T05:02:34;101818.03;;;6.17;66.32
76378;BME280;65200;49.500;8.654;2024-01-30T05:05:01;101820.31;;;6.22;67.12
76378;BME280;65200;49.500;8.654;2024-01-30T05:07:30;101822.22;;;6.20;68.20
76378;BME280;65200;49.500;8.654;2024-01-30T05:09:57;101822.00;;;6.23;67.23
76378;BME280;65200;49.500;8.654;2024-01-30T05:12:28;101825.38;;;6.25;70.21
76378;BME280;65200;49.500;8.654;2024-01-30T05:14:57;101831.25;;;7.01;70.44
76378;BME280;65200;49.500;8.654;2024-01-30T05:17:25;101828.44;;;7.63;69.03
76378;BME280;65200;49.500;8.654;2024-01-30T05:19:52;101828.59;;;8.29;68.93
76378;BME280;65200;49.500;8.654;2024-01-30T05:22:20;101828.72;;;8.76;66.04
76378;BME280;65200;49.500;8.654;2024-01-30T05:24:47;101833.09;;;8.86;65.24
76378;BME280;65200;49.500;8.654;2024-01-30T05:27:15;101830.50;;;9.04;66.36
76378;BME280;65200;49.500;8.654;2024-01-30T05:29:42;101824.97;;;9.15;65.13
76378;BME280;65200;49.500;8.654;2024-01-30T05:32:11;101831.56;;;9.30;65.30
76378;BME280;65200;49.500;8.654;2024-01-30T05:34:39;101820.31;;;9.26;65.18
76378;BME280;65200;49.500;8.654;2024-01-30T05:37:06;101830.84;;;9.28;64.25
76378;BME280;65200;49.500;8.654;2024-01-30T05:39:34;101833.59;;;9.09;64.29
76378;BME280;65200;49.500;8.654;2024-01-30T05:42:02;101828.59;;;9.60;62.81
76378;BME280;65200;49.500;8.654;2024-01-30T05:44:30;101825.31;;;9.39;63.38
76378;BME280;65200;49.500;8.654;2024-01-30T05:46:57;101829.00;;;9.38;63.98
76378;BME280;65200;49.500;8.654;2024-01-30T05:49:26;101834.78;;;9.24;64.88
76378;BME280;65200;49.500;8.654;2024-01-30T05:51:54;101834.25;;;9.57;62.75
76378;BME280;65200;49.500;8.654;2024-01-30T05:54:22;101828.59;;;9.60;62.74
76378;BME280;65200;49.500;8.654;2024-01-30T05:56:49;101824.09;;;9.88;62.15
76378;BME280;65200;49.500;8.654;2024-01-30T05:59:17;101830.31;;;10.06;61.50
76378;BME280;65200;49.500;8.654;2024-01-30T06:01:46;101828.13;;;9.74;61.44
76378;BME280;65200;49.500;8.654;2024-01-30T06:04:13;101828.78;;;9.76;61.23
76378;BME280;65200;49.500;8.654;2024-01-30T06:06:43;101834.25;;;9.84;61.23
76378;BME280;65200;49.500;8.654;2024-01-30T06:09:10;101830.81;;;9.74;61.82
76378;BME280;65200;49.500;8.654;2024-01-30T06:11:39;101837.63;;;9.59;62.33
76378;BME280;65200;49.500;8.654;2024-01-30T06:14:06;101835.66;;;9.88;60.87
76378;BME280;65200;49.500;8.654;2024-01-30T06:16:34;101836.25;;;9.82;61.08
76378;BME280;65200;49.500;8.654;2024-01-30T06:19:02;101832.88;;;9.80;61.84
76378;BME280;65200;49.500;8.654;2024-01-30T06:21:29;101808.16;;;9.86;61.25
76378;BME280;65200;49.500;8.654;2024-01-30T06:23:59;101827.81;;;9.77;60.57
76378;BME280;65200;49.500;8.654;2024-01-30T06:26:26;101824.84;;;9.80;61.43
76378;BME280;65200;49.500;8.654;2024-01-30T06:28:54;101827.66;;;9.79;61.46
76378;BME280;65200;49.500;8.654;2024-01-30T06:31:22;101829.75;;;10.02;59.84
76378;BME280;65200;49.500;8.654;2024-01-30T06:33:50;101831.38;;;9.68;61.10
76378;BME280;65200;49.500;8.654;2024-01-30T06:36:17;101837.06;;;9.83;60.30
76378;BME280;65200;49.500;8.654;2024-01-30T06:38:45;101836.16;;;9.37;61.03
76378;BME280;65200;49.500;8.654;2024-01-30T06:41:14;101841.03;;;9.51;62.23
76378;BME280;65200;49.500;8.654;2024-01-30T06:43:42;101835.81;;;9.50;62.08
76378;BME280;65200;49.500;8.654;2024-01-30T06:46:11;101832.94;;;9.34;62.36
76378;BME280;65200;49.500;8.654;2024-01-30T06:48:39;101835.66;;;9.61;61.33
76378;BME280;65200;49.500;8.654;2024-01-30T06:51:07;101829.97;;;9.37;61.98
76378;BME280;65200;49.500;8.654;2024-01-30T06:53:35;101832.13;;;9.33;62.38
76378;BME280;65200;49.500;8.654;2024-01-30T06:56:03;101841.25;;;9.67;60.35
76378;BME280;65200;49.500;8.654;2024-01-30T06:58:32;101838.44;;;9.69;60.23
76378;BME280;65200;49.500;8.654;2024-01-30T07:00:59;101832.69;;;9.64;59.86
76378;BME280;65200;49.500;8.654;2024-01-30T07:03:28;101826.44;;;9.91;60.07
76378;BME280;65200;49.500;8.654;2024-01-30T07:05:56;101832.66;;;9.91;60.13
76378;BME280;65200;49.500;8.654;2024-01-30T07:08:23;101833.06;;;9.96;60.39
76378;BME280;65200;49.500;8.654;2024-01-30T07:10:51;101831.00;;;9.90;60.13
76378;BME280;65200;49.500;8.654;2024-01-30T07:13:26;101833.91;;;9.69;60.92
76378;BME280;65200;49.500;8.654;2024-01-30T07:15:56;101828.22;;;9.82;60.77
76378;BME280;65200;49.500;8.654;2024-01-30T07:18:23;101836.75;;;9.95;60.28
76378;BME280;65200;49.500;8.654;2024-01-30T07:20:51;101841.84;;;9.89;60.59
76378;BME280;65200;49.500;8.654;2024-01-30T07:23:19;101840.47;;;10.02;59.46
76378;BME280;65200;49.500;8.654;2024-01-30T07:25:47;101843.97;;;10.12;58.91
76378;BME280;65200;49.500;8.654;2024-01-30T07:28:16;101836.09;;;10.28;59.02
76378;BME280;65200;49.500;8.654;2024-01-30T07:30:50;101843.28;;;10.10;58.82
76378;BME280;65200;49.500;8.654;2024-01-30T07:33:19;101847.72;;;9.92;59.21
76378;BME280;65200;49.500;8.654;2024-01-30T07:35:47;101839.47;;;10.30;57.78
76378;BME280;65200;49.500;8.654;2024-01-30T07:38:15;101845.84;;;10.47;57.64
76378;BME280;65200;49.500;8.654;2024-01-30T07:40:42;101849.72;;;10.52;57.12
76378;BME280;65200;49.500;8.654;2024-01-30T07:43:10;101847.44;;;10.40;57.71
76378;BME280;65200;49.500;8.654;2024-01-30T07:45:37;101850.03;;;10.32;58.15
76378;BME280;65200;49.500;8.654;2024-01-30T07:48:06;101836.78;;;10.48;57.28
76378;BME280;65200;49.500;8.654;2024-01-30T07:50:35;101841.59;;;10.79;56.63
76378;BME280;65200;49.500;8.654;2024-01-30T07:53:04;101842.31;;;10.46;57.15
76378;BME280;65200;49.500;8.654;2024-01-30T07:55:32;101843.16;;;10.29;57.26
76378;BME280;65200;49.500;8.654;2024-01-30T07:57:59;101850.78;;;10.77;56.47
76378;BME280;65200;49.500;8.654;2024-01-30T08:00:27;101850.50;;;10.62;56.53
76378;BME280;65200;49.500;8.654;2024-01-30T08:02:55;101859.06;;;10.66;56.45
76378;BME280;65200;49.500;8.654;2024-01-30T08:05:23;101857.56;;;10.63;56.34
76378;BME280;65200;49.500;8.654;2024-01-30T08:07:55;101861.03;;;10.99;55.35
76378;BME280;65200;49.500;8.654;2024-01-30T08:10:22;101868.94;;;11.00;55.33
76378;BME280;65200;49.500;8.654;2024-01-30T08:12:50;101874.66;;;10.88;55.47
76378;BME280;65200;49.500;8.654;2024-01-30T08:15:18;101873.78;;;10.79;55.98
76378;BME280;65200;49.500;8.654;2024-01-30T08:17:45;101878.38;;;10.87;55.25
76378;BME280;65200;49.500;8.654;2024-01-30T08:20:13;101878.16;;;11.24;54.17
76378;BME280;65200;49.500;8.654;2024-01-30T08:22:41;101886.84;;;11.26;53.87
76378;BME280;65200;49.500;8.654;2024-01-30T08:25:10;101885.66;;;11.46;54.24
76378;BME280;65200;49.500;8.654;2024-01-30T08:27:40;101893.19;;;11.17;54.13
76378;BME280;65200;49.500;8.654;2024-01-30T08:30:08;101894.69;;;11.37;54.21
76378;BME280;65200;49.500;8.654;2024-01-30T08:32:36;101890.56;;;11.25;54.44
76378;BME280;65200;49.500;8.654;2024-01-30T08:35:04;101889.78;;;11.58;54.09
76378;BME280;65200;49.500;8.654;2024-01-30T08:37:33;101891.28;;;11.60;53.50
76378;BME280;65200;49.500;8.654;2024-01-30T08:40:02;101890.06;;;11.29;53.99
76378;BME280;65200;49.500;8.654;2024-01-30T08:42:32;101884.84;;;11.71;52.65
76378;BME280;65200;49.500;8.654;2024-01-30T08:45:00;101887.91;;;11.58;53.89
76378;BME280;65200;49.500;8.654;2024-01-30T08:47:27;101893.06;;;11.52;52.88
76378;BME280;65200;49.500;8.654;2024-01-30T08:49:55;101882.59;;;11.41;53.49
76378;BME280;65200;49.500;8.654;2024-01-30T08:52:23;101886.63;;;11.37;53.80
76378;BME280;65200;49.500;8.654;2024-01-30T08:54:50;101882.81;;;11.47;54.36
76378;BME280;65200;49.500;8.654;2024-01-30T08:57:18;101886.16;;;11.67;53.98
76378;BME280;65200;49.500;8.654;2024-01-30T08:59:47;101884.91;;;11.87;53.12
76378;BME280;65200;49.500;8.654;2024-01-30T09:02:15;101889.91;;;11.82;52.47
76378;BME280;65200;49.500;8.654;2024-01-30T09:04:47;101887.81;;;11.68;53.70
76378;BME280;65200;49.500;8.654;2024-01-30T09:07:15;101877.13;;;11.50;53.41
76378;BME280;65200;49.500;8.654;2024-01-30T09:09:43;101875.72;;;11.64;53.87
76378;BME280;65200;49.500;8.654;2024-01-30T09:12:11;101879.03;;;11.91;52.78
76378;BME280;65200;49.500;8.654;2024-01-30T09:14:42;101876.19;;;11.34;54.64
76378;BME280;65200;49.500;8.654;2024-01-30T09:17:10;101880.88;;;11.57;53.95
76378;BME280;65200;49.500;8.654;2024-01-30T09:19:38;101883.63;;;11.40;54.67
76378;BME280;65200;49.500;8.654;2024-01-30T09:22:06;101885.06;;;11.60;54.88
76378;BME280;65200;49.500;8.654;2024-01-30T09:24:34;101890.09;;;11.63;54.40
76378;BME280;65200;49.500;8.654;2024-01-30T09:27:02;101887.81;;;11.68;53.19
76378;BME280;65200;49.500;8.654;2024-01-30T09:29:29;101879.53;;;11.87;52.76
76378;BME280;65200;49.500;8.654;2024-01-30T09:31:57;101882.44;;;12.01;53.15
76378;BME280;65200;49.500;8.654;2024-01-30T09:34:26;101890.31;;;11.95;53.47
76378;BME280;65200;49.500;8.654;2024-01-30T09:36:54;101888.03;;;12.16;53.88
76378;BME280;65200;49.500;8.654;2024-01-30T09:39:22;101881.41;;;11.94;53.37
76378;BME280;65200;49.500;8.654;2024-01-30T09:41:55;101890.38;;;12.11;52.84
76378;BME280;65200;49.500;8.654;2024-01-30T09:44:29;101881.69;;;12.33;52.49
76378;BME280;65200;49.500;8.654;2024-01-30T09:46:56;101899.19;;;12.45;50.70
76378;BME280;65200;49.500;8.654;2024-01-30T09:49:32;101893.78;;;11.87;52.36
76378;BME280;65200;49.500;8.654;2024-01-30T09:52:00;101896.66;;;11.94;52.09
76378;BME280;65200;49.500;8.654;2024-01-30T09:54:29;101894.47;;;11.89;53.21
76378;BME280;65200;49.500;8.654;2024-01-30T09:57:02;101902.81;;;12.20;51.27
76378;BME280;65200;49.500;8.654;2024-01-30T09:59:30;101905.84;;;12.25;52.48
76378;BME280;65200;49.500;8.654;2024-01-30T10:01:57;101898.84;;;12.40;51.45
76378;BME280;65200;49.500;8.654;2024-01-30T10:04:25;101896.34;;;12.47;52.18
76378;BME280;65200;49.500;8.654;2024-01-30T10:06:54;101898.16;;;12.46;52.94
76378;BME280;65200;49.500;8.654;2024-01-30T10:09:22;101891.78;;;12.39;52.77
76378;BME280;65200;49.500;8.654;2024-01-30T10:11:51;101893.16;;;12.67;52.54
76378;BME280;65200;49.500;8.654;2024-01-30T10:14:22;101898.81;;;12.24;52.66
76378;BME280;65200;49.500;8.654;2024-01-30T10:16:51;101896.91;;;12.16;52.59
76378;BME280;65200;49.500;8.654;2024-01-30T10:19:19;101902.88;;;12.44;51.49
76378;BME280;65200;49.500;8.654;2024-01-30T10:21:47;101895.81;;;12.43;53.27
76378;BME280;65200;49.500;8.654;2024-01-30T10:24:16;101896.88;;;12.58;51.07
76378;BME280;65200;49.500;8.654;2024-01-30T10:26:43;101901.41;;;12.66;52.56
76378;BME280;65200;49.500;8.654;2024-01-30T10:29:12;101897.03;;;12.49;51.75
76378;BME280;65200;49.500;8.654;2024-01-30T10:31:39;101894.84;;;12.52;51.02
76378;BME280;65200;49.500;8.654;2024-01-30T10:34:07;101896.53;;;12.61;52.06
76378;BME280;65200;49.500;8.654;2024-01-30T10:36:50;101898.69;;;12.58;51.71
76378;BME280;65200;49.500;8.654;2024-01-30T10:39:20;101892.69;;;12.72;51.35
76378;BME280;65200;49.500;8.654;2024-01-30T10:41:50;101892.81;;;12.70;52.29
76378;BME280;65200;49.500;8.654;2024-01-30T10:44:22;101897.91;;;12.73;51.11
76378;BME280;65200;49.500;8.654;2024-01-30T10:46:53;101897.41;;;12.94;51.28
76378;BME280;65200;49.500;8.654;2024-01-30T10:49:24;101897.22;;;12.63;51.37
76378;BME280;65200;49.500;8.654;2024-01-30T10:51:52;101891.16;;;12.77;50.18
76378;BME280;65200;49.500;8.654;2024-01-30T10:54:22;101890.16;;;12.78;49.72
76378;BME280;65200;49.500;8.654;2024-01-30T10:56:52;101894.34;;;12.97;50.29
76378;BME280;65200;49.500;8.654;2024-01-30T10:59:22;101889.31;;;12.86;50.01
76378;BME280;65200;49.500;8.654;2024-01-30T11:01:50;101890.53;;;13.15;49.29
76378;BME280;65200;49.500;8.654;2024-01-30T11:04:18;101892.34;;;12.99;49.99
76378;BME280;65200;49.500;8.654;2024-01-30T11:06:49;101877.50;;;13.51;49.34
76378;BME280;65200;49.500;8.654;2024-01-30T11:09:17;101884.00;;;13.64;47.05
76378;BME280;65200;49.500;8.654;2024-01-30T11:11:50;101885.47;;;13.20;47.95
76378;BME280;65200;49.500;8.654;2024-01-30T11:14:23;101898.38;;;12.77;48.13
76378;BME280;65200;49.500;8.654;2024-01-30T11:16:51;101893.69;;;13.11;48.21
76378;BME280;65200;49.500;8.654;2024-01-30T11:19:24;101904.47;;;13.03;47.91
76378;BME280;65200;49.500;8.654;2024-01-30T11:21:53;101903.13;;;12.91;50.39
76378;BME280;65200;49.500;8.654;2024-01-30T11:24:23;101899.75;;;12.97;50.22
76378;BME280;65200;49.500;8.654;2024-01-30T11:26:57;101906.31;;;12.78;50.68
76378;BME280;65200;49.500;8.654;2024-01-30T11:29:25;101902.59;;;12.63;50.07
76378;BME280;65200;49.500;8.654;2024-01-30T11:31:55;101903.13;;;12.83;50.06
76378;BME280;65200;49.500;8.654;2024-01-30T11:34:23;101891.88;;;13.03;49.81
76378;BME280;65200;49.500;8.654;2024-01-30T11:36:53;101882.28;;;13.01;49.77
76378;BME280;65200;49.500;8.654;2024-01-30T11:39:25;101883.97;;;13.10;49.15
76378;BME280;65200;49.500;8.654;2024-01-30T11:41:54;101883.09;;;13.09;49.64
76378;BME280;65200;49.500;8.654;2024-01-30T11:44:23;101879.38;;;13.34;49.69
76378;BME280;65200;49.500;8.654;2024-01-30T11:46:52;101876.25;;;13.69;48.45
76378;BME280;65200;49.500;8.654;2024-01-30T11:49:20;101884.06;;;13.40;48.15
76378;BME280;65200;49.500;8.654;2024-01-30T11:51:48;101883.94;;;13.26;50.38
76378;BME280;65200;49.500;8.654;2024-01-30T11:54:16;101871.41;;;13.57;50.45
76378;BME280;65200;49.500;8.654;2024-01-30T11:56:43;101864.59;;;13.14;48.88
76378;BME280;65200;49.500;8.654;2024-01-30T11:59:11;101861.84;;;13.54;49.76
76378;BME280;65200;49.500;8.654;2024-01-30T12:01:40;101846.94;;;13.20;49.23
76378;BME280;65200;49.500;8.654;2024-01-30T12:04:09;101852.53;;;13.65;48.69
76378;BME280;65200;49.500;8.654;2024-01-30T12:06:37;101847.09;;;13.26;50.21
76378;BME280;65200;49.500;8.654;2024-01-30T12:09:06;101843.75;;;13.16;49.57
76378;BME280;65200;49.500;8.654;2024-01-30T12:11:43;101837.69;;;13.14;49.34
76378;BME280;65200;49.500;8.654;2024-01-30T12:14:11;101832.84;;;13.56;49.93
76378;BME280;65200;49.500;8.654;2024-01-30T12:16:40;101826.00;;;13.46;49.37
76378;BME280;65200;49.500;8.654;2024-01-30T12:19:08;101834.31;;;13.28;50.37
76378;BME280;65200;49.500;8.654;2024-01-30T12:21:38;101826.75;;;13.70;48.61
76378;BME280;65200;49.500;8.654;2024-01-30T12:24:06;101817.00;;;13.61;48.61
76378;BME280;65200;49.500;8.654;2024-01-30T12:26:34;101819.13;;;13.35;49.64
76378;BME280;65200;49.500;8.654;2024-01-30T12:29:04;101823.94;;;13.56;50.66
76378;BME280;65200;49.500;8.654;2024-01-30T12:31:32;101830.56;;;13.37;49.81
76378;BME280;65200;49.500;8.654;2024-01-30T12:34:02;101832.84;;;13.56;49.21
76378;BME280;65200;49.500;8.654;2024-01-30T12:36:30;101821.41;;;13.93;48.50
76378;BME280;65200;49.500;8.654;2024-01-30T12:38:58;101832.41;;;13.84;48.99
76378;BME280;65200;49.500;8.654;2024-01-30T12:41:26;101829.44;;;13.70;49.60
76378;BME280;65200;49.500;8.654;2024-01-30T12:43:56;101818.31;;;14.35;48.07
76378;BME280;65200;49.500;8.654;2024-01-30T12:46:27;101823.66;;;13.82;49.69
76378;BME280;65200;49.500;8.654;2024-01-30T12:48:55;101825.22;;;14.07;49.73
76378;BME280;65200;49.500;8.654;2024-01-30T12:51:24;101827.22;;;13.82;48.97
76378;BME280;65200;49.500;8.654;2024-01-30T12:53:52;101836.06;;;13.91;50.41
76378;BME280;65200;49.500;8.654;2024-01-30T12:56:20;101835.28;;;13.82;49.16
76378;BME280;65200;49.500;8.654;2024-01-30T12:58:47;101838.84;;;14.05;49.85
76378;BME280;65200;49.500;8.654;2024-01-30T13:01:19;101839.94;;;13.96;50.27